Monday, September 01, 2014
13:50 UTC
  |  Log In   |  Register Free
Airport Search:

Comanche County-City Airport
(KMKN)

Comanche County-City Airport Diagram
No Airport Diagram Available

FAA data valid effective July 24, 2014 until September 18, 2014 (unless otherwise noted).

 
 
 
 
 
 
 
 
 
 
 
 
 
 

Current Aviation Weather for Comanche County-City Airport (KMKN)

The most recent METAR observation for KMKN was updated at: 1255 UTC
METAR Summary (Translated METAR)
KMKN
011255Z AUTO 19013G18KT 10SM 24/21 A2994 RMK AO2 T02400205
KBWD
(19.7 nm SW from KMKN)
011255Z AUTO 17008KT 10SM CLR 24/20 A2994 RMK AO2
TAF
No TAF information found within 50 nm of KMKN
  Airport Weather Conditions for KMKN

 Current Weather at MKN
75° F

South winds at 15.0 mph
MKN NOAA Radar

Pressure: 29.93 in
Humidity: 82%
Wind: from the South at 15.0 gusting to 18.4 MPH (13 gusting to 16 KT)
Dew Point: 68.9°F
Visibility: 10.00 mi


Airport Weather Forecast for KMKN

Translated METAR and TAF for KMKN
Translated METAR for KMKN (1343 UTC 01 September 2014)
found at http://aviationweather.gov/adds/metars/
 
METAR text: KMKN 011335Z AUTO 19014G19KT 10SM 25/21 A2994 RMK AO2 T02500206
Conditions at: KMKN (COMANCHE , TX, US) observed 1335 UTC 01 September 2014
Temperature: 25.0°C (77°F)
Dewpoint: 20.6°C (69°F) [RH = 77%]
Pressure (altimeter): 29.94 inches Hg (1014.0 mb)
Winds: from the S (190 degrees) at 16 MPH (14 knots; 7.3 m/s)
gusting to 22 MPH (19 knots; 9.9 m/s)
Visibility: 10 or more miles (16+ km)
Ceiling: unknown
Clouds: missing
Weather: automated observation with no human augmentation;
there may or may not be significant weather present at this time
Translated TAF for KMKN

There is no translated TAF available for this airport

Find All Airport Services Find A Hotel Find A Rental Car Find A Golf Course Find A Restaurant $100 Hamburger



FBO's on the Field
FBO Company Facility Photos Services Transportation Aviation Fuel Prices: Prices include tax
Catering Weather Repair Courtesy Rental Type 100LL JetA JetA+ MOGAS 8087
 
Comanche County/City Airport

This FBO has not yet been rated
FS:Avfuel
Last Updated: Aug-18
Login to update fuel prices
SS:
Contact Comanche County/City AirportMore FBO Information
 
Add another FBO Facility Photos Catering Weather Repair Courtesy Rental Type 100LL JetA JetA+ MOGAS 8087
Services Transportation Aviation Fuel Prices: Prices include tax


GlobalAir.com Airport Resource Center model-print
model-print
model-print
model-print